Time;durP1;ratioP1;P1;durP2;ratioP2;P2;SDS_P1;SDS_P2;PMS_P1;PMS_P2;Temp;Humidity;BMP_temperature;BMP_pressure;BME280_temperature;BME280_humidity;BME280_pressure;Samples;Min_cycle;Max_cycle;Signal;HPM_P1;HPM_P2
2022/03/30 00:01:17;;;;;;;16.73;10.38;;;6.20;99.90;;;;;;5001523;28;20052;-65
2022/03/30 00:03:42;;;;;;;20.73;11.60;;;6.20;99.90;;;;;;5017708;28;20050;-65
2022/03/30 00:06:08;;;;;;;12.77;8.95;;;6.20;99.90;;;;;;5017779;28;20056;-66
2022/03/30 00:08:34;;;;;;;21.60;10.60;;;6.20;99.90;;;;;;4999327;28;20049;-65
2022/03/30 00:11:00;;;;;;;21.38;10.32;;;6.20;99.90;;;;;;5000803;28;20115;-65
2022/03/30 00:13:26;;;;;;;16.25;9.90;;;6.20;99.90;;;;;;5001474;28;20045;-65
2022/03/30 00:15:52;;;;;;;18.33;11.80;;;6.20;99.90;;;;;;5018906;28;20817;-65
2022/03/30 00:18:18;;;;;;;22.42;10.45;;;6.10;99.90;;;;;;5038045;28;20152;-65
2022/03/30 00:20:44;;;;;;;13.43;9.27;;;6.10;99.90;;;;;;5019990;28;20710;-65
2022/03/30 00:23:10;;;;;;;21.20;9.20;;;6.00;99.90;;;;;;5019749;28;20048;-65
2022/03/30 00:25:36;;;;;;;15.07;8.50;;;6.00;99.90;;;;;;5038573;28;20053;-65
2022/03/30 00:28:02;;;;;;;17.33;9.18;;;6.00;99.90;;;;;;5038427;28;20527;-65
2022/03/30 00:30:28;;;;;;;24.40;10.20;;;5.90;99.90;;;;;;5020286;28;20052;-65
2022/03/30 00:32:54;;;;;;;18.77;10.73;;;5.90;99.90;;;;;;5020104;28;20057;-65
2022/03/30 00:35:19;;;;;;;22.73;9.40;;;6.60;99.90;;;;;;5037358;28;20765;-65
2022/03/30 00:37:45;;;;;;;22.75;11.52;;;5.80;99.90;;;;;;5038021;28;20090;-65
2022/03/30 00:40:13;;;;;;;17.50;10.82;;;5.70;99.90;;;;;;5019546;28;20041;-65
2022/03/30 00:42:39;;;;;;;23.77;11.93;;;5.70;99.90;;;;;;5020173;28;20049;-65
2022/03/30 00:45:23;;;;;;;21.33;11.95;;;5.60;99.90;;;;;;5019514;28;20048;-65
2022/03/30 00:47:49;;;;;;;18.40;10.27;;;5.60;99.90;;;;;;5019916;28;20993;-65
2022/03/30 00:50:17;;;;;;;19.95;10.60;;;5.60;99.90;;;;;;5019109;28;20648;-65
2022/03/30 00:52:44;;;;;;;15.77;10.55;;;5.70;99.90;;;;;;5037559;28;20041;-65
2022/03/30 00:55:10;;;;;;;20.45;10.27;;;5.60;99.90;;;;;;5038062;28;20138;-65
2022/03/30 00:57:37;;;;;;;17.45;11.10;;;5.60;99.90;;;;;;5033176;28;20048;-65
2022/03/30 01:00:08;;;;;;;22.30;9.38;;;5.60;99.90;;;;;;5014753;28;20846;-65
2022/03/30 01:02:37;;;;;;;22.15;10.05;;;5.60;99.90;;;;;;4999653;28;20103;-65
2022/03/30 01:05:03;;;;;;;15.27;9.40;;;5.60;99.90;;;;;;4999063;28;20129;-65
2022/03/30 01:07:29;;;;;;;14.40;8.40;;;5.60;99.90;;;;;;5017928;28;20045;-65
2022/03/30 01:09:55;;;;;;;23.73;14.40;;;5.60;99.90;;;;;;5017961;28;20123;-65
2022/03/30 01:12:20;;;;;;;18.38;9.52;;;5.60;99.90;;;;;;4998666;28;20034;-65
2022/03/30 01:14:46;;;;;;;25.00;11.77;;;5.60;99.90;;;;;;5017949;28;20158;-65
2022/03/30 01:17:13;;;;;;;13.73;9.43;;;5.60;99.90;;;;;;5011327;28;20130;-65
2022/03/30 01:19:38;;;;;;;19.17;9.85;;;5.60;99.90;;;;;;5036923;28;20049;-65
2022/03/30 01:22:07;;;;;;;17.50;10.38;;;5.70;99.90;;;;;;5019279;28;20357;-65
2022/03/30 01:24:33;;;;;;;13.98;8.35;;;5.70;99.90;;;;;;5019113;28;20052;-65
2022/03/30 01:26:58;;;;;;;17.45;9.70;;;5.70;99.90;;;;;;5037654;28;20789;-65
2022/03/30 01:32:25;;;;;;;17.83;9.52;;;5.80;99.90;;;;;;5019329;28;20044;-65
2022/03/30 01:34:51;;;;;;;23.52;10.65;;;5.90;99.90;;;;;;5003218;28;20053;-65
2022/03/30 01:37:17;;;;;;;14.07;8.85;;;6.00;99.90;;;;;;4996988;28;20128;-65
2022/03/30 01:39:42;;;;;;;20.98;11.65;;;6.00;99.90;;;;;;4996783;28;20053;-65
2022/03/30 01:42:09;;;;;;;20.40;12.35;;;6.00;99.90;;;;;;4997724;28;20042;-65
2022/03/30 01:44:37;;;;;;;19.55;11.70;;;6.10;99.90;;;;;;5029443;28;20044;-65
2022/03/30 01:47:03;;;;;;;17.23;9.90;;;6.20;99.90;;;;;;5035526;28;20137;-65
2022/03/30 01:49:29;;;;;;;18.42;11.40;;;6.20;99.90;;;;;;5036904;28;20059;-65
2022/03/30 01:51:57;;;;;;;19.25;10.60;;;6.20;99.90;;;;;;5035949;28;20036;-65
2022/03/30 01:54:27;;;;;;;17.52;9.60;;;6.20;99.90;;;;;;5017463;28;20063;-65
2022/03/30 01:56:55;;;;;;;17.13;9.05;;;6.30;99.90;;;;;;5036600;28;20044;-66
2022/03/30 01:59:22;;;;;;;17.48;11.57;;;6.30;99.90;;;;;;4989884;28;20049;-66
2022/03/30 02:01:48;;;;;;;24.92;10.60;;;6.30;99.90;;;;;;5032347;28;20052;-66
2022/03/30 02:04:14;;;;;;;21.33;9.98;;;6.30;99.90;;;;;;5036606;28;20859;-67
2022/03/30 02:06:40;;;;;;;15.32;10.20;;;6.40;99.90;;;;;;5030474;28;20052;-66
2022/03/30 02:09:07;;;;;;;23.42;10.73;;;6.40;99.90;;;;;;5034586;28;20096;-66
2022/03/30 02:11:34;;;;;;;18.25;9.98;;;6.40;99.90;;;;;;5018938;28;20076;-65
2022/03/30 02:14:00;;;;;;;23.40;11.60;;;6.40;99.90;;;;;;5028227;28;20048;-67
2022/03/30 02:16:25;;;;;;;21.80;11.73;;;6.50;99.90;;;;;;5004679;28;20041;-67
2022/03/30 02:18:51;;;;;;;18.30;9.95;;;6.50;99.90;;;;;;5036555;28;20052;-67
2022/03/30 02:21:17;;;;;;;25.05;10.30;;;6.50;99.90;;;;;;5036248;28;20818;-67
2022/03/30 02:23:47;;;;;;;21.38;10.15;;;6.50;99.90;;;;;;5029843;28;20045;-67
2022/03/30 02:26:14;;;;;;;19.20;10.82;;;6.50;99.90;;;;;;4996926;28;20111;-66
2022/03/30 02:28:41;;;;;;;17.05;10.25;;;6.50;99.90;;;;;;4996410;28;20045;-67
2022/03/30 02:31:07;;;;;;;24.65;12.25;;;6.50;99.90;;;;;;5004973;28;20098;-66
2022/03/30 02:33:33;;;;;;;19.73;10.18;;;6.50;99.90;;;;;;5001121;28;20480;-67
2022/03/30 02:35:59;;;;;;;19.13;10.10;;;6.50;99.90;;;;;;4996045;28;20118;-67
2022/03/30 02:38:24;;;;;;;16.35;9.85;;;6.50;99.90;;;;;;4996635;28;20762;-67
2022/03/30 02:40:50;;;;;;;22.02;10.70;;;6.50;99.90;;;;;;4996480;28;20100;-67
2022/03/30 02:43:19;;;;;;;21.27;10.85;;;6.60;99.90;;;;;;4996272;28;20092;-67
2022/03/30 02:45:46;;;;;;;19.17;10.05;;;6.50;99.90;;;;;;4997201;28;20057;-67
2022/03/30 02:48:17;;;;;;;11.70;8.07;;;6.50;99.90;;;;;;4978720;28;20551;-66
2022/03/30 02:50:45;;;;;;;15.38;8.43;;;6.50;99.90;;;;;;4995607;28;20247;-66
2022/03/30 02:53:11;;;;;;;21.05;10.70;;;6.50;99.90;;;;;;5011514;28;20053;-68
2022/03/30 02:55:37;;;;;;;20.77;11.45;;;6.50;99.90;;;;;;5000977;28;20049;-67
2022/03/30 02:58:04;;;;;;;20.95;11.27;;;6.50;99.90;;;;;;5003553;28;20045;-67
2022/03/30 03:00:30;;;;;;;15.55;9.98;;;6.50;99.90;;;;;;4996538;28;20509;-67
2022/03/30 03:02:56;;;;;;;18.77;10.60;;;6.50;99.90;;;;;;5026919;28;20057;-66
2022/03/30 03:05:21;;;;;;;18.30;10.63;;;6.50;99.90;;;;;;5011472;28;20042;-67
2022/03/30 03:07:47;;;;;;;22.48;10.18;;;6.60;99.90;;;;;;4996280;28;20459;-67
2022/03/30 03:10:13;;;;;;;16.88;8.70;;;6.50;99.90;;;;;;4978546;28;20137;-67
2022/03/30 03:12:38;;;;;;;19.27;10.75;;;6.50;99.90;;;;;;4997392;28;20046;-67
2022/03/30 03:15:04;;;;;;;17.13;9.32;;;6.50;99.90;;;;;;4994106;28;20119;-66
2022/03/30 03:17:30;;;;;;;14.75;9.13;;;6.50;99.90;;;;;;5019877;28;20457;-67
2022/03/30 03:19:55;;;;;;;18.98;9.70;;;6.50;99.90;;;;;;5020063;28;20053;-67
2022/03/30 03:22:21;;;;;;;16.30;10.32;;;6.50;99.90;;;;;;5020604;28;20045;-67
2022/03/30 03:24:46;;;;;;;18.10;11.45;;;6.50;99.90;;;;;;5012220;28;20061;-67
2022/03/30 03:27:12;;;;;;;15.70;8.98;;;6.50;99.90;;;;;;5002903;28;20942;-67
2022/03/30 03:29:38;;;;;;;20.05;10.70;;;6.50;99.90;;;;;;5024292;28;20046;-67
2022/03/30 03:32:04;;;;;;;16.73;8.95;;;6.50;99.90;;;;;;5025985;28;20108;-67
2022/03/30 03:34:29;;;;;;;16.15;10.18;;;6.50;99.90;;;;;;5019503;28;20049;-67
2022/03/30 03:36:55;;;;;;;17.40;9.80;;;6.60;99.90;;;;;;5019915;28;20049;-67
2022/03/30 03:39:20;;;;;;;28.95;10.65;;;6.60;99.90;;;;;;5015649;28;20482;-67
2022/03/30 03:41:46;;;;;;;16.98;8.93;;;6.60;99.90;;;;;;4999662;28;20042;-67
2022/03/30 03:44:11;;;;;;;23.63;9.10;;;6.60;99.90;;;;;;5000289;28;20053;-66
2022/03/30 03:46:37;;;;;;;14.35;8.82;;;6.60;99.90;;;;;;4999037;28;20379;-67
2022/03/30 03:49:02;;;;;;;15.63;8.23;;;6.60;99.90;;;;;;4999369;28;20631;-67
2022/03/30 03:51:28;;;;;;;13.15;8.93;;;6.60;99.90;;;;;;4999639;28;20244;-67
2022/03/30 03:53:54;;;;;;;13.57;7.80;;;6.70;99.90;;;;;;5020849;28;20088;-67
2022/03/30 03:56:20;;;;;;;17.05;7.75;;;6.60;99.90;;;;;;5024894;28;20052;-66
2022/03/30 03:58:49;;;;;;;9.73;6.40;;;6.70;99.90;;;;;;5019338;28;20506;-67
2022/03/30 04:01:14;;;;;;;7.82;4.78;;;6.60;99.90;;;;;;5002152;28;20049;-68
2022/03/30 04:03:42;;;;;;;6.47;3.70;;;6.60;99.90;;;;;;5029116;28;21009;-67
2022/03/30 04:06:08;;;;;;;2.63;2.00;;;6.60;99.90;;;;;;5019239;28;20045;-67
2022/03/30 04:08:34;;;;;;;1.92;1.75;;;6.60;99.90;;;;;;5018644;28;20092;-67
2022/03/30 04:10:59;;;;;;;3.83;1.52;;;6.50;99.90;;;;;;5019814;28;20088;-67
2022/03/30 04:13:25;;;;;;;2.67;1.50;;;6.50;99.90;;;;;;5001090;28;20164;-67
2022/03/30 04:15:51;;;;;;;4.65;1.70;;;6.50;99.90;;;;;;5018898;28;20045;-67
2022/03/30 04:18:17;;;;;;;3.70;2.00;;;6.50;99.90;;;;;;5000782;28;20051;-67
2022/03/30 04:20:44;;;;;;;3.30;2.63;;;6.40;99.90;;;;;;5017638;28;20624;-67
2022/03/30 04:23:10;;;;;;;2.55;1.50;;;6.30;99.90;;;;;;5018678;28;20120;-67
2022/03/30 04:25:36;;;;;;;1.20;1.10;;;6.30;99.90;;;;;;5000324;28;20049;-67
2022/03/30 04:28:01;;;;;;;2.15;1.58;;;6.30;99.90;;;;;;5002447;28;20122;-67
2022/03/30 04:30:27;;;;;;;1.13;1.02;;;6.30;99.90;;;;;;5027205;28;20041;-67
2022/03/30 04:32:53;;;;;;;1.55;1.20;;;6.30;99.90;;;;;;5018526;28;20404;-67
2022/03/30 04:35:24;;;;;;;1.15;0.95;;;6.20;99.90;;;;;;4999654;28;20053;-67
2022/03/30 04:37:51;;;;;;;1.13;1.10;;;6.20;99.90;;;;;;5018634;28;20045;-67
2022/03/30 04:40:17;;;;;;;0.75;0.70;;;6.20;99.90;;;;;;4989914;28;20465;-67
2022/03/30 04:42:42;;;;;;;1.38;1.27;;;6.20;99.90;;;;;;4997617;28;20133;-66
2022/03/30 04:45:08;;;;;;;0.73;0.73;;;6.20;99.90;;;;;;4997976;28;20124;-66
2022/03/30 04:47:34;;;;;;;1.52;0.60;;;6.20;99.90;;;;;;4980791;28;20065;-66
2022/03/30 04:50:00;;;;;;;1.00;0.77;;;6.20;99.90;;;;;;4997723;28;20838;-67
2022/03/30 04:52:25;;;;;;;0.63;0.57;;;6.20;99.90;;;;;;5006035;28;20048;-66
2022/03/30 04:54:51;;;;;;;1.15;0.60;;;6.10;99.90;;;;;;5017703;28;20148;-66
2022/03/30 04:57:16;;;;;;;0.35;0.35;;;6.10;99.90;;;;;;5017427;28;20045;-66
2022/03/30 04:59:42;;;;;;;1.15;0.88;;;6.00;99.90;;;;;;5017656;28;20440;-66
2022/03/30 05:02:08;;;;;;;0.98;0.98;;;6.00;99.90;;;;;;5021668;28;20137;-66
2022/03/30 05:04:34;;;;;;;0.77;0.77;;;6.00;99.90;;;;;;5024572;28;20049;-66
2022/03/30 05:06:59;;;;;;;1.45;1.27;;;5.90;99.90;;;;;;5017178;28;20160;-66
2022/03/30 05:09:25;;;;;;;1.60;1.45;;;5.90;99.90;;;;;;5017330;28;20065;-66
2022/03/30 05:11:51;;;;;;;2.25;1.50;;;5.90;99.90;;;;;;5017116;28;20507;-66
2022/03/30 05:14:17;;;;;;;3.47;1.83;;;5.90;99.90;;;;;;5017607;28;20049;-66
2022/03/30 05:16:42;;;;;;;2.97;2.08;;;5.90;99.90;;;;;;5003687;28;20052;-65
2022/03/30 05:19:09;;;;;;;2.58;1.95;;;5.90;99.90;;;;;;5026344;28;20092;-65
2022/03/30 05:21:35;;;;;;;1.30;1.20;;;5.80;99.90;;;;;;5017677;28;20045;-66
2022/03/30 05:24:00;;;;;;;1.52;1.20;;;5.80;99.90;;;;;;5016561;28;20115;-66
2022/03/30 05:26:28;;;;;;;1.42;1.20;;;5.80;99.90;;;;;;5002034;28;20057;-66
2022/03/30 05:28:54;;;;;;;1.20;0.95;;;5.80;99.90;;;;;;5026099;28;20134;-66
2022/03/30 05:31:19;;;;;;;1.67;1.00;;;5.80;99.90;;;;;;5009363;28;20041;-66
2022/03/30 05:33:45;;;;;;;0.80;0.73;;;5.80;99.90;;;;;;5017029;28;20719;-65
2022/03/30 05:36:12;;;;;;;2.92;1.05;;;5.80;99.90;;;;;;5016354;28;20073;-65
2022/03/30 05:38:38;;;;;;;1.75;1.20;;;5.80;99.90;;;;;;5016539;28;20054;-66
2022/03/30 05:41:03;;;;;;;1.75;1.00;;;5.70;99.90;;;;;;4998178;28;20707;-66
2022/03/30 05:43:29;;;;;;;1.98;0.98;;;5.70;99.90;;;;;;5016741;28;20037;-65
2022/03/30 05:45:55;;;;;;;1.08;0.98;;;5.70;99.90;;;;;;5015898;28;20046;-66
2022/03/30 05:48:21;;;;;;;1.13;0.70;;;5.70;99.90;;;;;;4998861;28;20234;-65
2022/03/30 05:50:47;;;;;;;2.78;1.10;;;5.80;99.90;;;;;;5017083;28;20041;-66
2022/03/30 05:53:14;;;;;;;1.15;1.08;;;5.80;99.90;;;;;;5016671;28;20100;-65
2022/03/30 05:55:42;;;;;;;2.50;0.90;;;5.70;99.90;;;;;;4997873;28;20067;-65
2022/03/30 05:58:07;;;;;;;1.35;1.17;;;5.80;99.90;;;;;;5025884;28;20092;-65
2022/03/30 06:00:33;;;;;;;1.40;1.10;;;5.70;99.90;;;;;;5018621;28;20880;-65
2022/03/30 06:02:59;;;;;;;2.42;1.55;;;5.70;99.90;;;;;;5019983;28;20049;-65
2022/03/30 06:05:24;;;;;;;1.00;1.00;;;5.70;99.90;;;;;;5023766;28;20400;-65
2022/03/30 06:07:50;;;;;;;2.53;1.38;;;5.70;99.90;;;;;;5022640;28;20044;-64
2022/03/30 06:10:16;;;;;;;1.48;1.17;;;5.70;99.90;;;;;;5031161;28;20049;-65
2022/03/30 06:12:42;;;;;;;1.17;1.00;;;5.70;99.90;;;;;;5016085;28;20707;-65
2022/03/30 06:15:09;;;;;;;1.15;1.05;;;5.70;99.90;;;;;;5015405;28;20056;-65
2022/03/30 06:17:34;;;;;;;2.30;1.25;;;5.80;99.90;;;;;;5000855;28;20061;-65
2022/03/30 06:20:03;;;;;;;1.20;1.10;;;5.80;99.90;;;;;;5018982;28;20833;-65
2022/03/30 06:22:30;;;;;;;2.75;1.10;;;5.80;99.90;;;;;;5006604;28;20057;-65
2022/03/30 06:24:56;;;;;;;1.55;1.27;;;5.80;99.90;;;;;;5015448;28;20495;-65
2022/03/30 06:27:22;;;;;;;1.23;1.08;;;5.80;99.90;;;;;;4668773;28;10000348;-65
2022/03/30 06:29:47;;;;;;;4.38;1.02;;;5.80;99.90;;;;;;4319416;28;10000688;-65
2022/03/30 06:32:13;;;;;;;4.68;2.55;;;5.90;99.90;;;;;;4992901;28;20045;-64
2022/03/30 06:34:40;;;;;;;1.50;1.40;;;5.80;99.90;;;;;;5008723;28;20045;-64
2022/03/30 06:37:05;;;;;;;1.42;1.20;;;5.80;99.90;;;;;;5010249;28;20120;-64
2022/03/30 06:39:32;;;;;;;1.70;1.40;;;5.80;99.90;;;;;;5007703;28;20235;-64
2022/03/30 06:41:58;;;;;;;3.30;1.35;;;5.80;99.90;;;;;;5008581;28;20156;-64
2022/03/30 06:44:24;;;;;;;0.88;0.88;;;5.80;99.90;;;;;;5009627;28;21026;-64
2022/03/30 06:46:50;;;;;;;7.47;1.60;;;5.90;99.90;;;;;;5011311;28;20083;-64
2022/03/30 06:49:16;;;;;;;5.03;1.77;;;5.90;99.90;;;;;;4991184;28;20045;-64
2022/03/30 06:51:41;;;;;;;2.55;1.38;;;6.00;99.90;;;;;;5008363;28;20042;-65
2022/03/30 06:54:07;;;;;;;2.10;1.20;;;5.70;99.90;;;;;;5008004;28;20125;-65
2022/03/30 06:56:33;;;;;;;3.70;1.30;;;6.10;99.90;;;;;;5007923;28;20512;-65
2022/03/30 06:58:58;;;;;;;3.10;1.45;;;6.20;99.90;;;;;;5010083;28;20633;-66
2022/03/30 07:01:24;;;;;;;2.38;1.40;;;6.20;99.90;;;;;;4993322;28;20119;-64
2022/03/30 07:03:50;;;;;;;2.53;1.33;;;6.20;99.90;;;;;;5012217;28;20046;-64
2022/03/30 07:06:16;;;;;;;6.05;1.98;;;6.20;99.90;;;;;;5011571;28;20099;-64
2022/03/30 07:11:26;;;;;;;3.70;1.33;;;6.30;99.90;;;;;;5007594;28;20760;-64
2022/03/30 07:13:52;;;;;;;7.28;2.60;;;6.40;99.90;;;;;;4993248;28;20060;-64
2022/03/30 07:16:18;;;;;;;6.93;2.53;;;6.50;99.90;;;;;;4995922;28;20053;-64
2022/03/30 07:18:44;;;;;;;5.57;1.65;;;6.60;99.90;;;;;;4993459;28;20873;-64
2022/03/30 07:21:10;;;;;;;6.70;2.92;;;6.60;99.90;;;;;;5011773;28;20046;-64
2022/03/30 07:23:35;;;;;;;2.97;1.38;;;6.50;99.90;;;;;;4993099;28;20037;-64
2022/03/30 07:26:01;;;;;;;2.63;1.80;;;6.40;99.90;;;;;;5011116;28;20052;-64
2022/03/30 07:28:27;;;;;;;3.58;1.27;;;6.40;99.90;;;;;;4993817;28;20600;-64
2022/03/30 07:30:53;;;;;;;2.80;1.80;;;6.40;99.90;;;;;;5012944;28;20076;-64
2022/03/30 07:33:22;;;;;;;4.07;1.70;;;6.40;99.90;;;;;;5011952;28;20052;-64
2022/03/30 07:35:48;;;;;;;3.25;2.00;;;6.40;99.90;;;;;;4993234;28;20135;-64
2022/03/30 07:38:15;;;;;;;2.90;2.63;;;6.40;99.90;;;;;;5010477;28;20475;-65
2022/03/30 07:40:41;;;;;;;4.40;2.08;;;6.50;99.90;;;;;;5012174;28;20156;-65
2022/03/30 07:43:07;;;;;;;7.35;2.80;;;6.70;99.90;;;;;;4994536;28;20050;-65
2022/03/30 07:45:34;;;;;;;3.47;2.00;;;6.80;99.90;;;;;;5011882;28;20528;-65
2022/03/30 07:48:00;;;;;;;2.60;2.40;;;6.90;99.90;;;;;;4993445;28;20941;-65
2022/03/30 07:50:26;;;;;;;3.30;2.75;;;7.10;99.90;;;;;;5012357;28;20521;-65
2022/03/30 07:52:51;;;;;;;2.63;2.15;;;7.40;99.90;;;;;;5010892;28;20690;-65
2022/03/30 07:55:17;;;;;;;2.70;2.00;;;7.40;99.90;;;;;;5011307;28;20091;-65
2022/03/30 07:57:42;;;;;;;3.42;2.70;;;7.40;99.90;;;;;;4994132;28;20085;-65
2022/03/30 08:00:16;;;;;;;3.63;2.30;;;7.40;99.90;;;;;;5014715;28;20748;-65
2022/03/30 08:02:44;;;;;;;3.42;2.03;;;7.50;99.90;;;;;;5017012;28;20091;-65
2022/03/30 08:05:12;;;;;;;5.05;3.10;;;8.30;99.90;;;;;;5011738;28;20071;-64
2022/03/30 08:07:45;;;;;;;3.67;2.97;;;7.50;99.90;;;;;;5000165;28;20467;-64
2022/03/30 08:10:11;;;;;;;4.00;2.75;;;7.60;99.90;;;;;;4671682;28;10000043;-65
2022/03/30 08:12:38;;;;;;;3.28;2.38;;;7.50;99.90;;;;;;5023532;28;20040;-65
2022/03/30 08:15:04;;;;;;;2.58;2.10;;;7.40;99.90;;;;;;5023585;28;20045;-64
2022/03/30 08:17:30;;;;;;;4.47;2.72;;;7.30;99.90;;;;;;5032248;28;20147;-64
2022/03/30 08:19:57;;;;;;;2.95;1.83;;;7.30;99.90;;;;;;5033863;28;20067;-64
2022/03/30 08:22:26;;;;;;;2.70;1.40;;;7.20;99.90;;;;;;5033764;28;20074;-64
2022/03/30 08:24:53;;;;;;;2.28;1.65;;;7.30;99.90;;;;;;5032775;28;20040;-64
2022/03/30 08:27:21;;;;;;;4.22;1.30;;;7.30;99.90;;;;;;4996386;28;20049;-64
2022/03/30 08:29:48;;;;;;;2.03;1.80;;;7.10;99.90;;;;;;5021801;28;20049;-64
2022/03/30 08:32:15;;;;;;;6.60;1.42;;;7.10;99.90;;;;;;5033516;28;20041;-64
2022/03/30 08:34:42;;;;;;;2.55;1.20;;;7.20;99.90;;;;;;5032887;28;20212;-64
2022/03/30 08:37:08;;;;;;;8.02;1.52;;;7.20;99.90;;;;;;5033782;28;20771;-64
2022/03/30 08:39:35;;;;;;;3.78;1.70;;;7.20;99.90;;;;;;5025450;28;20213;-64
2022/03/30 08:42:05;;;;;;;3.90;1.58;;;7.00;99.90;;;;;;4994516;28;20046;-64
2022/03/30 08:44:32;;;;;;;2.20;1.45;;;6.90;99.90;;;;;;4994734;28;20116;-63
2022/03/30 08:46:58;;;;;;;2.10;1.65;;;6.70;99.90;;;;;;4977449;28;20050;-66
2022/03/30 08:49:26;;;;;;;3.17;1.42;;;6.60;99.90;;;;;;4994994;28;20052;-66
2022/03/30 08:51:53;;;;;;;3.25;1.38;;;6.40;99.90;;;;;;4994842;28;20053;-67
2022/03/30 08:54:19;;;;;;;3.83;1.73;;;6.30;99.90;;;;;;4995617;28;20207;-65
2022/03/30 08:56:46;;;;;;;4.40;2.03;;;6.20;99.90;;;;;;4984276;28;20079;-65
2022/03/30 08:59:16;;;;;;;3.33;1.30;;;6.40;99.90;;;;;;5023882;28;20088;-65
2022/03/30 09:01:43;;;;;;;4.25;1.27;;;6.50;99.90;;;;;;4996503;28;20148;-65
2022/03/30 09:04:12;;;;;;;2.35;1.27;;;6.80;99.90;;;;;;5013867;28;20049;-65
2022/03/30 09:06:44;;;;;;;2.20;1.77;;;7.10;99.90;;;;;;5014075;28;20046;-66
2022/03/30 09:09:10;;;;;;;1.55;0.90;;;7.00;99.90;;;;;;5006844;28;20045;-66
2022/03/30 09:11:56;;;;;;;1.60;1.25;;;6.90;99.90;;;;;;5003633;28;20137;-66
2022/03/30 09:14:28;;;;;;;2.40;1.70;;;6.80;99.90;;;;;;5014520;28;20477;-65
2022/03/30 09:16:56;;;;;;;1.77;1.33;;;6.80;99.90;;;;;;5017635;28;20053;-65
2022/03/30 09:19:23;;;;;;;2.25;0.90;;;7.00;99.90;;;;;;5001690;28;20046;-66
2022/03/30 09:21:57;;;;;;;3.95;1.25;;;7.10;99.90;;;;;;5026869;28;20060;-66
2022/03/30 09:24:31;;;;;;;2.63;1.13;;;7.30;99.90;;;;;;5023342;28;20041;-65
2022/03/30 09:26:58;;;;;;;7.55;1.83;;;7.40;99.90;;;;;;5024066;28;20114;-66
2022/03/30 09:29:26;;;;;;;1.58;0.95;;;7.30;99.90;;;;;;5024611;28;20068;-65
2022/03/30 09:31:52;;;;;;;3.30;1.55;;;7.20;99.90;;;;;;4997581;28;20828;-66
2022/03/30 09:34:19;;;;;;;4.45;1.27;;;7.10;99.90;;;;;;5020351;28;20056;-63
2022/03/30 09:36:46;;;;;;;3.58;1.00;;;7.10;99.90;;;;;;5001883;28;20118;-65
2022/03/30 09:39:33;;;;;;;2.35;1.00;;;7.00;99.90;;;;;;5022799;28;20052;-66
2022/03/30 09:42:00;;;;;;;3.05;1.50;;;7.00;99.90;;;;;;5021132;28;20063;-65
2022/03/30 09:44:28;;;;;;;2.53;1.60;;;7.00;99.90;;;;;;5007386;28;20432;-65
2022/03/30 09:46:58;;;;;;;1.00;0.95;;;7.10;99.90;;;;;;5006798;28;20053;-65
2022/03/30 09:49:34;;;;;;;3.00;1.05;;;7.20;99.90;;;;;;4999316;28;20151;-65
2022/03/30 09:52:00;;;;;;;2.17;1.55;;;7.10;99.90;;;;;;5019898;28;20037;-65
2022/03/30 09:54:37;;;;;;;2.90;2.15;;;7.00;99.90;;;;;;5021904;28;20115;-65
2022/03/30 09:57:12;;;;;;;2.75;1.77;;;6.90;99.90;;;;;;5009351;28;20045;-65
2022/03/30 10:00:02;;;;;;;1.83;1.58;;;6.90;99.90;;;;;;4992477;28;20097;-66
2022/03/30 10:02:34;;;;;;;3.10;1.33;;;6.80;99.90;;;;;;5017286;28;20117;-66
2022/03/30 10:05:00;;;;;;;2.38;1.58;;;6.70;99.90;;;;;;5002131;28;20055;-66
2022/03/30 10:07:28;;;;;;;4.03;1.65;;;6.80;99.90;;;;;;5023992;28;20048;-66
2022/03/30 10:09:57;;;;;;;2.03;1.80;;;6.80;99.90;;;;;;5020418;28;20084;-67
2022/03/30 10:12:23;;;;;;;2.40;1.60;;;6.90;99.90;;;;;;5015690;28;20151;-67
2022/03/30 10:14:49;;;;;;;2.67;1.70;;;6.90;99.90;;;;;;4999800;28;20067;-66
2022/03/30 10:17:18;;;;;;;2.75;1.80;;;7.00;99.90;;;;;;5003873;28;20587;-68
2022/03/30 10:19:44;;;;;;;2.53;1.90;;;7.10;99.90;;;;;;5001905;28;20081;-66
2022/03/30 10:22:31;;;;;;;1.98;1.73;;;7.20;99.90;;;;;;5009705;28;20199;-66
2022/03/30 10:25:05;;;;;;;3.25;2.05;;;7.20;99.90;;;;;;4994390;28;20500;-66
2022/03/30 10:28:06;;;;;;;2.95;1.80;;;7.20;99.90;;;;;;5004630;28;20056;-66
2022/03/30 10:30:33;;;;;;;8.75;2.20;;;7.30;99.90;;;;;;5011320;28;20045;-66
2022/03/30 10:33:01;;;;;;;1.92;1.83;;;7.40;99.90;;;;;;5005499;28;20119;-66
2022/03/30 10:35:42;;;;;;;4.53;2.20;;;7.60;99.90;;;;;;5012226;28;20632;-67
2022/03/30 10:38:09;;;;;;;3.70;1.85;;;7.60;99.90;;;;;;5001529;28;20233;-66
2022/03/30 10:40:36;;;;;;;2.95;1.90;;;7.60;99.90;;;;;;5018168;28;20148;-66
2022/03/30 10:43:04;;;;;;;3.92;1.98;;;7.60;99.90;;;;;;5023624;28;20046;-67
2022/03/30 10:45:53;;;;;;;4.57;1.70;;;7.60;99.90;;;;;;5025810;28;20049;-66
2022/03/30 10:48:40;;;;;;;2.90;2.00;;;7.70;99.90;;;;;;4992755;28;20056;-66
2022/03/30 10:51:13;;;;;;;1.92;1.73;;;7.70;99.90;;;;;;5017379;28;20088;-66
2022/03/30 10:53:41;;;;;;;;;;;7.80;99.90;;;;;;5015123;28;20610;-66
2022/03/30 10:56:07;;;;;;;1.63;1.52;;;7.80;99.90;;;;;;4997063;28;20633;-66
2022/03/30 10:58:37;;;;;;;3.05;1.65;;;7.80;99.90;;;;;;5015322;28;20052;-66
2022/03/30 11:01:13;;;;;;;2.90;1.73;;;7.90;99.90;;;;;;4997643;28;20053;-67
2022/03/30 11:03:56;;;;;;;4.70;2.05;;;7.90;99.90;;;;;;4997810;28;20053;-66
2022/03/30 11:06:22;;;;;;;4.00;2.05;;;7.70;99.90;;;;;;5014161;28;20661;-66
2022/03/30 11:08:51;;;;;;;1.83;1.65;;;7.60;99.90;;;;;;5013164;28;20138;-66
2022/03/30 11:11:27;;;;;;;2.95;1.50;;;7.60;99.90;;;;;;5015067;28;20132;-66
2022/03/30 11:14:31;;;;;;;2.53;2.08;;;7.40;99.90;;;;;;4996633;28;20054;-66
2022/03/30 11:17:05;;;;;;;3.78;1.70;;;7.40;99.90;;;;;;5013271;28;20122;-67
2022/03/30 11:19:54;;;;;;;3.88;1.52;;;7.40;99.90;;;;;;5015163;28;20048;-66
2022/03/30 11:22:28;;;;;;;2.25;2.10;;;7.50;99.90;;;;;;5021970;28;20103;-66
2022/03/30 11:25:18;;;;;;;5.43;1.85;;;7.50;99.90;;;;;;5005006;28;20049;-62
2022/03/30 11:27:45;;;;;;;2.30;1.83;;;7.50;99.90;;;;;;5001495;28;20049;-67
2022/03/30 11:30:15;;;;;;;2.95;2.17;;;7.40;99.90;;;;;;4994242;28;20556;-66
2022/03/30 11:32:50;;;;;;;3.13;2.20;;;7.30;99.90;;;;;;5007356;28;20041;-66
2022/03/30 11:35:17;;;;;;;1.92;1.55;;;7.40;99.90;;;;;;5022773;28;20041;-66
2022/03/30 11:37:45;;;;;;;3.70;1.63;;;7.40;99.90;;;;;;5003846;28;20560;-67
2022/03/30 11:40:19;;;;;;;1.38;1.27;;;7.40;99.90;;;;;;5002940;28;20205;-66
2022/03/30 11:42:50;;;;;;;1.98;1.17;;;7.50;99.90;;;;;;5002642;28;20162;-67
2022/03/30 11:45:21;;;;;;;1.67;1.35;;;7.60;99.90;;;;;;5015605;28;20037;-67
2022/03/30 11:47:55;;;;;;;1.92;1.52;;;7.80;99.90;;;;;;5000422;28;20053;-66
2022/03/30 11:50:39;;;;;;;1.75;1.33;;;8.00;99.90;;;;;;5005627;28;20052;-66
2022/03/30 11:53:35;;;;;;;5.32;1.98;;;8.20;99.90;;;;;;5014070;28;20076;-66
2022/03/30 11:56:05;;;;;;;4.85;1.45;;;8.20;99.90;;;;;;4985177;28;20054;-67
2022/03/30 11:58:39;;;;;;;1.70;1.10;;;8.30;99.90;;;;;;5013067;28;20047;-67
2022/03/30 12:01:11;;;;;;;4.05;1.65;;;8.60;99.90;;;;;;5013190;28;20033;-66
2022/03/30 12:03:37;;;;;;;1.63;1.10;;;8.70;99.90;;;;;;5019273;28;20450;-67
2022/03/30 12:06:04;;;;;;;3.03;1.10;;;8.50;99.90;;;;;;4997245;28;20053;-67
2022/03/30 12:08:49;;;;;;;2.55;1.10;;;8.40;99.20;;;;;;5005270;28;20048;-67
2022/03/30 12:11:19;;;;;;;6.43;1.98;;;8.50;99.90;;;;;;5026732;28;20091;-66
2022/03/30 12:13:53;;;;;;;0.90;0.90;;;8.40;98.10;;;;;;4999753;28;20152;-66
2022/03/30 12:16:20;;;;;;;1.27;1.10;;;8.30;99.70;;;;;;5023082;28;20049;-66
2022/03/30 12:18:51;;;;;;;1.20;1.08;;;8.20;99.00;;;;;;5014107;28;20123;-67
2022/03/30 12:21:23;;;;;;;4.05;1.48;;;8.20;97.00;;;;;;5015340;28;20064;-66
2022/03/30 12:24:01;;;;;;;3.55;1.75;;;8.30;98.70;;;;;;5012322;28;20048;-66
2022/03/30 12:26:27;;;;;;;1.40;0.95;;;8.40;99.20;;;;;;4994255;28;20045;-66
2022/03/30 12:29:03;;;;;;;1.60;1.20;;;8.40;98.20;;;;;;5014735;28;20485;-66
2022/03/30 12:31:33;;;;;;;3.33;1.17;;;8.40;97.00;;;;;;5014286;28;20049;-67
2022/03/30 12:34:14;;;;;;;1.75;1.40;;;8.50;97.60;;;;;;5013840;28;20037;-66
2022/03/30 12:36:46;;;;;;;1.75;1.30;;;8.50;96.70;;;;;;4997114;28;20096;-66
2022/03/30 12:39:20;;;;;;;1.08;1.02;;;8.50;95.90;;;;;;5016489;28;20728;-66
2022/03/30 12:42:26;;;;;;;6.25;1.27;;;8.60;97.00;;;;;;4999619;28;20049;-67
2022/03/30 12:44:54;;;;;;;1.13;1.02;;;8.60;96.90;;;;;;4954070;28;20055;-66
2022/03/30 12:47:33;;;;;;;2.70;1.23;;;8.70;96.30;;;;;;4936913;28;20093;-66
2022/03/30 12:50:07;;;;;;;3.33;1.00;;;8.70;94.90;;;;;;4968542;28;20069;-66
2022/03/30 12:52:41;;;;;;;3.15;1.50;;;8.90;95.60;;;;;;4992583;28;20077;-66
2022/03/30 12:55:13;;;;;;;1.58;1.05;;;8.90;96.00;;;;;;4996244;28;20045;-66
2022/03/30 12:58:07;;;;;;;2.80;1.23;;;9.10;96.60;;;;;;5017632;28;20846;-67
2022/03/30 13:00:47;;;;;;;2.97;1.10;;;9.20;96.80;;;;;;5012221;28;20612;-66
2022/03/30 13:03:18;;;;;;;2.53;1.38;;;9.20;95.70;;;;;;5017369;28;20053;-66
2022/03/30 13:06:07;;;;;;;2.00;1.65;;;9.00;94.50;;;;;;5015865;28;20045;-66